This is the latest recevied weather packets stored in our database for station/object KC3ELT-10. If no packets are shown the sender has not sent any weather packets the latest 10 day(s).
| Time | Temp. | Humidity | Pressure | Rain* | Wind** | Luminosity | Snow |
|---|---|---|---|---|---|---|---|
| 1777744079 | 12.22° C | 44% | 1006.6 hPa | 0 mm | 1.34 m/s, 324° | - | - |
| 1777743779 | 12.22° C | 45% | 1006.5 hPa | 0 mm | 1.79 m/s, 282° | - | - |
| 1777743479 | 12.22° C | 46% | 1006.5 hPa | 0 mm | 1.34 m/s, 326° | - | - |
| 1777743179 | 11.67° C | 47% | 1006.5 hPa | 0 mm | 2.24 m/s, 0° | - | - |
| 1777742879 | 11.67° C | 51% | 1006.4 hPa | 0 mm | 1.79 m/s, 13° | - | - |
| 1777742579 | 11.11° C | 47% | 1006.4 hPa | 0 mm | 0.89 m/s, 359° | - | - |
| 1777742279 | 11.67° C | 47% | 1006.4 hPa | 0 mm | 2.24 m/s, 307° | - | - |
| 1777741979 | 11.67° C | 48% | 1006.5 hPa | 0 mm | 0.45 m/s, 24° | - | - |
| 1777741679 | 11.67° C | 46% | 1006.5 hPa | 0 mm | 2.24 m/s, 281° | - | - |
| 1777741378 | 12.22° C | 46% | 1006.5 hPa | 0 mm | 2.68 m/s, 326° | - | - |
| 1777741079 | 11.67° C | 49% | 1006.6 hPa | 0 mm | 0.89 m/s, 45° | - | - |
| 1777740779 | 11.67° C | 50% | 1006.6 hPa | 0 mm | 2.24 m/s, 359° | - | - |
| 1777740479 | 12.22° C | 47% | 1006.6 hPa | 0 mm | 1.79 m/s, 340° | - | - |
| 1777740179 | 12.22° C | 50% | 1007 hPa | 0 mm | 0.45 m/s, 43° | - | - |
| 1777739878 | 12.22° C | 50% | 1007 hPa | 0 mm | 0 m/s | - | - |
| 1777739578 | 12.22° C | 50% | 1007 hPa | 0 mm | 2.24 m/s, 330° | - | - |
| 1777739279 | 12.22° C | 54% | 1007.1 hPa | 0 mm | 0.45 m/s, 46° | - | - |
| 1777738979 | 12.22° C | 50% | 1007.1 hPa | 0 mm | 0 m/s | - | - |
| 1777738679 | 11.67° C | 52% | 1007.1 hPa | 0 mm | 0.45 m/s, 34° | - | - |
| 1777738379 | 12.22° C | 53% | 1007.1 hPa | 0 mm | 1.34 m/s, 340° | - | - |
| 1777738079 | 12.22° C | 57% | 1007.1 hPa | 0 mm | 0 m/s | - | - |
| 1777737779 | 11.67° C | 55% | 1007.1 hPa | 0 mm | 0.89 m/s, 1° | - | - |
| 1777737478 | 11.67° C | 55% | 1007.2 hPa | 0 mm | 1.79 m/s, 27° | - | - |
| 1777737178 | 11.11° C | 59% | 1007.2 hPa | 0 mm | 1.34 m/s, 45° | - | - |
| 1777736878 | 10.56° C | 61% | 1007.2 hPa | 0 mm | 0.45 m/s, 0° | - | - |
* Rain latest hour (hover to see other rain measurements)
** Current wind speed in m/s (hover to see current wind gust speed)